createdAt,value
2023-05-14T00:00:28.772Z,39.47
2023-05-14T00:03:19.422Z,39.48
2023-05-14T00:05:51.020Z,39.49
2023-05-14T00:08:21.580Z,39.58
2023-05-14T00:10:52.224Z,39.61
2023-05-14T00:13:22.728Z,39.64
2023-05-14T00:15:53.362Z,39.67
2023-05-14T00:18:24.098Z,39.67
2023-05-14T00:20:55.322Z,39.75
2023-05-14T00:23:25.950Z,39.71
2023-05-14T00:25:56.599Z,39.71
2023-05-14T00:28:27.174Z,39.68
2023-05-14T00:30:58.081Z,39.81
2023-05-14T00:33:28.713Z,39.85
2023-05-14T00:35:59.232Z,39.92
2023-05-14T00:38:30.492Z,39.88
2023-05-14T00:41:01.216Z,39.93
2023-05-14T00:43:33.333Z,39.84
2023-05-14T00:46:04.045Z,39.86
2023-05-14T00:48:35.541Z,39.85
2023-05-14T00:51:06.610Z,40.00
2023-05-14T00:53:37.574Z,40.06
2023-05-14T00:56:08.386Z,40.20
2023-05-14T00:58:39.035Z,40.20
2023-05-14T01:01:10.177Z,40.14
2023-05-14T01:03:40.915Z,40.20
2023-05-14T01:06:16.669Z,40.13
2023-05-14T01:08:52.277Z,40.19
2023-05-14T01:11:26.132Z,40.26
2023-05-14T01:13:59.533Z,40.29
2023-05-14T01:16:32.242Z,40.24
2023-05-14T01:19:03.947Z,40.33
2023-05-14T01:21:44.310Z,40.27
2023-05-14T01:24:14.867Z,40.31
2023-05-14T01:26:45.505Z,40.61
2023-05-14T01:29:18.226Z,40.57
2023-05-14T01:31:50.064Z,40.53
2023-05-14T01:34:22.346Z,40.60
2023-05-14T01:36:54.652Z,40.57
2023-05-14T01:39:26.439Z,40.52
2023-05-14T01:41:57.612Z,40.37
2023-05-14T01:44:28.348Z,40.68
2023-05-14T01:46:58.895Z,40.54
2023-05-14T01:49:29.544Z,40.60
2023-05-14T01:52:00.185Z,40.57
2023-05-14T01:54:30.797Z,40.84
2023-05-14T01:57:01.560Z,40.92
2023-05-14T01:59:32.265Z,40.67
2023-05-14T02:02:02.834Z,40.89
2023-05-14T02:04:33.409Z,40.99
2023-05-14T02:07:04.043Z,40.83
2023-05-14T02:09:34.761Z,40.89
2023-05-14T02:12:05.501Z,41.00
2023-05-14T02:14:36.549Z,41.00
2023-05-14T02:17:07.207Z,40.82
2023-05-14T02:19:37.876Z,40.94
2023-05-14T02:22:08.453Z,41.17
2023-05-14T02:24:39.115Z,40.89
2023-05-14T02:27:09.770Z,40.99
2023-05-14T02:29:40.691Z,41.23
2023-05-14T02:32:11.339Z,41.36
2023-05-14T02:34:41.931Z,41.38
2023-05-14T02:37:12.588Z,41.35
2023-05-14T02:39:43.119Z,41.29
2023-05-14T02:42:13.592Z,41.34
2023-05-14T02:44:44.317Z,41.40
2023-05-14T02:47:14.809Z,41.46
2023-05-14T02:49:45.492Z,41.40
2023-05-14T02:52:16.106Z,41.44
2023-05-14T02:54:46.698Z,41.43
2023-05-14T02:57:17.188Z,41.49
2023-05-14T02:59:47.769Z,41.69
2023-05-14T03:02:18.757Z,41.67
2023-05-14T03:04:50.593Z,41.77
2023-05-14T03:07:21.093Z,41.65
2023-05-14T03:09:51.695Z,41.79
2023-05-14T03:12:22.254Z,41.67
2023-05-14T03:14:52.812Z,41.77
2023-05-14T03:17:23.403Z,41.81
2023-05-14T03:19:54.220Z,41.64
2023-05-14T03:22:24.759Z,41.79
2023-05-14T03:24:55.358Z,41.88
2023-05-14T03:27:25.827Z,41.96
2023-05-14T03:29:56.425Z,42.01
2023-05-14T03:32:27.424Z,41.99
2023-05-14T03:34:57.999Z,41.79
2023-05-14T03:37:28.501Z,42.02
2023-05-14T03:39:59.934Z,42.08
2023-05-14T03:42:30.563Z,42.00
2023-05-14T03:45:01.159Z,42.08
2023-05-14T03:47:31.717Z,42.08
2023-05-14T03:50:04.362Z,42.16
2023-05-14T03:52:35.023Z,42.17
2023-05-14T03:55:07.206Z,42.12
2023-05-14T03:57:37.924Z,42.30
2023-05-14T04:00:09.964Z,42.38
2023-05-14T04:02:47.326Z,42.31
2023-05-14T04:05:18.066Z,42.32
2023-05-14T04:07:49.325Z,42.48
2023-05-14T04:10:19.900Z,42.33
2023-05-14T04:12:50.455Z,42.35
2023-05-14T04:15:21.685Z,42.33
2023-05-14T04:17:52.295Z,42.48
2023-05-14T04:20:23.142Z,42.51
2023-05-14T04:22:54.092Z,42.52
2023-05-14T04:25:24.994Z,42.44
2023-05-14T04:27:55.582Z,42.41
2023-05-14T04:30:26.499Z,42.44
2023-05-14T04:32:57.128Z,42.50
2023-05-14T04:35:27.832Z,42.74
2023-05-14T04:37:58.368Z,42.80
2023-05-14T04:40:29.129Z,42.92
2023-05-14T04:42:59.716Z,42.77
2023-05-14T04:45:32.189Z,42.77
2023-05-14T04:48:04.120Z,42.76
2023-05-14T04:50:35.254Z,42.80
2023-05-14T04:53:05.893Z,42.81
2023-05-14T04:55:36.477Z,42.89
2023-05-14T04:58:07.090Z,42.94
2023-05-14T05:00:37.630Z,42.97
2023-05-14T05:03:08.871Z,42.96
2023-05-14T05:05:39.508Z,43.01
2023-05-14T05:08:11.639Z,43.04
2023-05-14T05:10:42.298Z,42.95
2023-05-14T05:13:12.804Z,42.98
2023-05-14T05:15:43.492Z,43.04
2023-05-14T05:18:14.051Z,43.14
2023-05-14T05:20:44.642Z,43.14
2023-05-14T05:23:15.194Z,43.17
2023-05-14T05:25:45.841Z,43.15
2023-05-14T05:28:16.533Z,43.13
2023-05-14T05:30:47.156Z,43.21
2023-05-14T05:33:17.818Z,43.20
2023-05-14T05:35:50.195Z,43.09
2023-05-14T05:38:20.863Z,43.07
2023-05-14T05:40:51.573Z,42.91
2023-05-14T05:43:22.390Z,43.09
2023-05-14T05:45:52.861Z,43.01
2023-05-14T05:48:23.457Z,43.01
2023-05-14T05:50:54.073Z,43.02
2023-05-14T05:53:24.575Z,42.92
2023-05-14T05:55:55.149Z,42.89
2023-05-14T05:58:26.350Z,42.90
2023-05-14T06:00:57.769Z,42.93
2023-05-14T06:03:28.474Z,42.99
2023-05-14T06:05:59.029Z,42.90
2023-05-14T06:08:29.568Z,42.85
2023-05-14T06:11:00.143Z,42.86
2023-05-14T06:13:30.581Z,42.78
2023-05-14T06:16:01.258Z,42.70
2023-05-14T06:18:32.002Z,42.78
2023-05-14T06:21:02.521Z,42.60
2023-05-14T06:23:33.094Z,42.59
2023-05-14T06:26:03.712Z,42.56
2023-05-14T06:28:34.294Z,42.64
2023-05-14T06:31:04.880Z,42.56
2023-05-14T06:33:35.514Z,42.51
2023-05-14T06:36:07.032Z,42.48
2023-05-14T06:38:37.577Z,42.32
2023-05-14T06:41:08.190Z,42.17
2023-05-14T06:43:38.769Z,42.03
2023-05-14T06:46:09.312Z,42.15
2023-05-14T06:48:39.940Z,42.10
2023-05-14T06:51:11.047Z,42.09
2023-05-14T06:53:41.834Z,42.08
2023-05-14T06:56:13.062Z,41.90
2023-05-14T06:58:43.611Z,41.74
2023-05-14T07:01:14.307Z,41.74
2023-05-14T07:03:44.863Z,41.74
2023-05-14T07:06:15.466Z,41.43
2023-05-14T07:08:46.882Z,41.61
2023-05-14T07:11:17.469Z,41.46
2023-05-14T07:13:48.031Z,41.58
2023-05-14T07:19:30.217Z,40.97
2023-05-14T07:22:01.335Z,40.97
2023-05-14T07:24:31.857Z,39.95
2023-05-14T07:27:02.657Z,39.28
2023-05-14T07:29:35.129Z,39.76
2023-05-14T07:32:05.908Z,39.97
2023-05-14T07:34:36.435Z,38.93
2023-05-14T07:37:07.192Z,38.69
2023-05-14T07:39:37.751Z,37.22
2023-05-14T07:42:09.260Z,38.16
2023-05-14T07:44:40.024Z,38.81
2023-05-14T07:47:10.822Z,38.38
2023-05-14T07:49:41.442Z,37.96
2023-05-14T07:52:11.992Z,38.30
2023-05-14T07:54:42.538Z,38.52
2023-05-14T07:57:13.050Z,37.30
2023-05-14T07:59:43.845Z,37.98
2023-05-14T08:02:16.147Z,37.09
2023-05-14T08:04:47.011Z,37.78
2023-05-14T08:07:17.486Z,37.71
2023-05-14T08:09:48.219Z,36.08
2023-05-14T08:12:18.758Z,37.96
2023-05-14T08:14:49.398Z,37.94
2023-05-14T08:17:19.904Z,38.06
2023-05-14T08:19:50.743Z,37.30
2023-05-14T08:22:21.850Z,35.74
2023-05-14T08:24:52.483Z,37.06
2023-05-14T08:27:23.296Z,37.19
2023-05-14T08:29:54.117Z,35.59
2023-05-14T08:32:24.685Z,36.32
2023-05-14T08:34:55.265Z,35.73
2023-05-14T08:37:25.892Z,35.69
2023-05-14T08:39:56.590Z,36.19
2023-05-14T08:42:27.871Z,36.77
2023-05-14T08:45:02.131Z,36.41
2023-05-14T08:47:33.014Z,36.45
2023-05-14T08:50:05.100Z,35.56
2023-05-14T08:52:36.107Z,35.34
2023-05-14T08:55:08.048Z,35.94
2023-05-14T08:57:38.678Z,35.03
2023-05-14T09:00:12.435Z,35.04
2023-05-14T09:02:43.535Z,35.67
2023-05-14T09:05:14.572Z,34.96
2023-05-14T09:07:45.183Z,35.87
2023-05-14T09:10:16.126Z,35.63
2023-05-14T09:12:46.694Z,35.88
2023-05-14T09:15:17.243Z,36.04
2023-05-14T09:17:48.711Z,35.77
2023-05-14T09:20:19.833Z,34.01
2023-05-14T09:22:53.601Z,34.15
2023-05-14T09:25:27.632Z,33.31
2023-05-14T09:27:59.050Z,33.59
2023-05-14T09:30:30.162Z,34.12
2023-05-14T09:33:00.757Z,34.69
2023-05-14T09:35:32.629Z,34.43
2023-05-14T09:38:03.306Z,33.39
2023-05-14T09:40:33.902Z,34.11
2023-05-14T09:43:04.440Z,33.66
2023-05-14T09:45:36.069Z,33.73
2023-05-14T09:48:07.179Z,33.85
2023-05-14T09:50:42.799Z,33.70
2023-05-14T09:53:13.494Z,34.27
2023-05-14T09:55:44.371Z,34.40
2023-05-14T09:58:15.628Z,34.04
2023-05-14T10:00:47.868Z,33.29
2023-05-14T10:03:20.170Z,32.80
2023-05-14T10:05:51.672Z,33.07
2023-05-14T10:08:25.430Z,32.69
2023-05-14T10:10:56.488Z,33.39
2023-05-14T10:13:30.228Z,32.74
2023-05-14T10:16:07.633Z,31.36
2023-05-14T10:18:41.367Z,32.44
2023-05-14T10:21:12.901Z,31.82
2023-05-14T10:23:43.876Z,31.71
2023-05-14T10:26:14.994Z,30.23
2023-05-14T10:28:45.961Z,31.55
2023-05-14T10:31:17.510Z,30.99
2023-05-14T10:33:52.326Z,30.78
2023-05-14T10:36:23.515Z,30.45
2023-05-14T10:38:58.103Z,31.18
2023-05-14T10:41:28.770Z,31.24
2023-05-14T10:44:00.930Z,30.47
2023-05-14T10:46:31.699Z,31.72
2023-05-14T10:49:02.317Z,32.02
2023-05-14T10:51:33.581Z,32.15
2023-05-14T10:54:04.634Z,32.10
2023-05-14T10:56:35.464Z,32.12
2023-05-14T10:59:07.782Z,32.18
2023-05-14T11:01:41.436Z,32.13
2023-05-14T11:04:19.269Z,31.96
2023-05-14T11:06:50.474Z,32.06
2023-05-14T11:09:22.693Z,31.64
2023-05-14T11:11:54.635Z,31.86
2023-05-14T11:14:25.437Z,31.98
2023-05-14T11:16:56.659Z,29.80
2023-05-14T11:19:27.271Z,31.00
2023-05-14T11:21:57.899Z,31.53
2023-05-14T11:24:28.411Z,31.62
2023-05-14T11:26:59.064Z,31.05
2023-05-14T11:29:29.685Z,30.77
2023-05-14T11:32:00.438Z,31.34
2023-05-14T11:34:31.418Z,31.41
2023-05-14T11:37:03.637Z,30.87
2023-05-14T11:39:34.288Z,31.33
2023-05-14T11:42:05.506Z,30.64
2023-05-14T11:44:36.135Z,30.69
2023-05-14T11:47:07.145Z,30.70
2023-05-14T11:49:38.122Z,30.91
2023-05-14T11:52:10.342Z,31.02
2023-05-14T11:54:41.138Z,31.10
2023-05-14T11:57:12.845Z,31.35
2023-05-14T11:59:43.494Z,31.26
2023-05-14T12:02:15.291Z,31.06
2023-05-14T12:04:46.282Z,31.11
2023-05-14T12:07:17.672Z,30.98
2023-05-14T12:09:49.878Z,31.17
2023-05-14T12:12:21.837Z,30.85
2023-05-14T12:14:52.742Z,31.28
2023-05-14T12:17:23.893Z,31.05
2023-05-14T12:19:56.465Z,31.24
2023-05-14T12:22:26.993Z,30.76
2023-05-14T12:24:59.143Z,31.18
2023-05-14T12:27:31.250Z,31.04
2023-05-14T12:30:19.049Z,30.94
2023-05-14T12:32:53.018Z,30.65
2023-05-14T12:35:24.108Z,31.00
2023-05-14T12:37:55.036Z,30.99
2023-05-14T12:40:25.940Z,31.09
2023-05-14T12:42:57.054Z,30.95
2023-05-14T12:45:27.824Z,30.98
2023-05-14T12:47:58.517Z,31.06
2023-05-14T12:50:29.253Z,31.17
2023-05-14T12:52:59.868Z,30.31
2023-05-14T12:55:30.531Z,30.61
2023-05-14T12:58:01.129Z,30.58
2023-05-14T13:00:31.736Z,30.30
2023-05-14T13:03:02.398Z,30.24
2023-05-14T13:05:33.429Z,29.17
2023-05-14T13:08:04.111Z,28.79
2023-05-14T13:10:34.774Z,29.36
2023-05-14T13:13:05.591Z,28.43
2023-05-14T13:15:36.658Z,29.40
2023-05-14T13:18:07.499Z,28.50
2023-05-14T13:20:38.125Z,29.10
2023-05-14T13:23:08.740Z,29.37
2023-05-14T13:25:39.446Z,29.78
2023-05-14T13:28:10.069Z,29.83
2023-05-14T13:30:40.665Z,29.85
2023-05-14T13:33:11.284Z,29.92
2023-05-14T13:35:41.960Z,29.45
2023-05-14T13:38:12.561Z,29.62
2023-05-14T13:40:43.153Z,29.51
2023-05-14T13:43:14.951Z,29.41
2023-05-14T13:45:45.847Z,29.72
2023-05-14T13:48:16.537Z,29.45
2023-05-14T13:50:47.252Z,29.46
2023-05-14T13:53:17.850Z,29.86
2023-05-14T13:55:49.292Z,29.73
2023-05-14T13:58:20.233Z,29.80
2023-05-14T14:00:51.012Z,28.98
2023-05-14T14:03:21.631Z,28.96
2023-05-14T14:05:52.274Z,28.99
2023-05-14T14:08:24.290Z,28.86
2023-05-14T14:10:55.820Z,29.31
2023-05-14T14:13:26.565Z,29.56
2023-05-14T14:15:57.267Z,29.48
2023-05-14T14:18:27.877Z,29.69
2023-05-14T14:20:58.559Z,29.64
2023-05-14T14:23:29.163Z,29.43
2023-05-14T14:26:00.108Z,29.61
2023-05-14T14:28:30.818Z,29.69
2023-05-14T14:31:01.396Z,29.47
2023-05-14T14:33:31.978Z,29.69
2023-05-14T14:36:02.660Z,29.54
2023-05-14T14:38:33.265Z,29.73
2023-05-14T14:41:04.070Z,29.73
2023-05-14T14:43:34.738Z,29.80
2023-05-14T14:46:05.457Z,29.76
2023-05-14T14:48:37.874Z,29.79
2023-05-14T14:51:09.162Z,29.63
2023-05-14T14:53:40.504Z,29.66
2023-05-14T14:56:11.616Z,29.79
2023-05-14T14:58:42.497Z,29.80
2023-05-14T15:01:13.163Z,29.87
2023-05-14T15:03:45.639Z,29.78
2023-05-14T15:06:16.283Z,29.76
2023-05-14T15:08:46.902Z,29.74
2023-05-14T15:11:17.497Z,29.77
2023-05-14T15:13:48.103Z,29.86
2023-05-14T15:16:18.950Z,29.80
2023-05-14T15:18:49.545Z,29.88
2023-05-14T15:21:20.164Z,29.75
2023-05-14T15:23:50.930Z,29.86
2023-05-14T15:26:21.816Z,29.79
2023-05-14T15:28:52.324Z,29.83
2023-05-14T15:31:23.104Z,29.69
2023-05-14T15:33:56.081Z,29.72
2023-05-14T15:36:26.676Z,29.65
2023-05-14T15:38:57.291Z,29.68
2023-05-14T15:41:28.875Z,29.72
2023-05-14T15:43:59.502Z,29.77
2023-05-14T15:46:30.472Z,29.84
2023-05-14T15:49:01.131Z,29.91
2023-05-14T15:51:31.904Z,29.83
2023-05-14T15:54:02.550Z,29.86
2023-05-14T15:56:33.207Z,29.89
2023-05-14T15:59:03.853Z,29.92
2023-05-14T16:01:34.433Z,29.91
2023-05-14T16:04:05.197Z,29.99
2023-05-14T16:06:36.374Z,29.94
2023-05-14T16:09:06.975Z,30.01
2023-05-14T16:11:37.586Z,29.92
2023-05-14T16:14:08.363Z,29.88
2023-05-14T16:16:39.427Z,29.96
2023-05-14T16:19:10.167Z,30.01
2023-05-14T16:21:40.860Z,29.95
2023-05-14T16:24:12.712Z,29.98
2023-05-14T16:26:43.353Z,30.12
2023-05-14T16:29:13.908Z,30.16
2023-05-14T16:31:44.510Z,30.04
2023-05-14T16:34:15.137Z,30.17
2023-05-14T16:36:45.730Z,30.09
2023-05-14T16:39:16.664Z,30.15
2023-05-14T16:41:47.302Z,30.14
2023-05-14T16:44:17.851Z,30.16
2023-05-14T16:46:48.641Z,30.23
2023-05-14T16:49:22.502Z,30.22
2023-05-14T16:51:53.217Z,30.25
2023-05-14T16:54:23.889Z,30.35
2023-05-14T16:56:54.367Z,30.36
2023-05-14T16:59:25.288Z,30.34
2023-05-14T17:01:56.134Z,30.37
2023-05-14T17:04:26.893Z,30.33
2023-05-14T17:06:58.355Z,30.50
2023-05-14T17:09:29.086Z,30.51
2023-05-14T17:11:59.649Z,30.56
2023-05-14T17:14:30.300Z,30.55
2023-05-14T17:17:00.891Z,30.54
2023-05-14T17:19:31.518Z,30.53
2023-05-14T17:22:02.090Z,30.62
2023-05-14T17:24:32.798Z,30.63
2023-05-14T17:27:03.354Z,30.73
2023-05-14T17:29:33.985Z,30.66
2023-05-14T17:32:05.033Z,30.70
2023-05-14T17:34:35.844Z,30.72
2023-05-14T17:37:06.891Z,30.63
2023-05-14T17:39:37.533Z,30.75
2023-05-14T17:42:09.220Z,30.75
2023-05-14T17:44:39.758Z,30.84
2023-05-14T17:47:10.300Z,30.78
2023-05-14T17:49:40.916Z,30.89
2023-05-14T17:52:11.395Z,30.94
2023-05-14T17:54:41.978Z,31.16
2023-05-14T17:57:12.596Z,30.97
2023-05-14T17:59:43.262Z,31.02
2023-05-14T18:02:13.832Z,31.12
2023-05-14T18:04:44.552Z,31.15
2023-05-14T18:07:15.081Z,31.20
2023-05-14T18:09:45.674Z,31.21
2023-05-14T18:12:16.311Z,31.25
2023-05-14T18:14:47.016Z,31.26
2023-05-14T18:17:17.638Z,31.28
2023-05-14T18:19:48.390Z,31.41
2023-05-14T18:22:20.450Z,31.41
2023-05-14T18:24:50.992Z,31.45
2023-05-14T18:27:21.556Z,31.47
2023-05-14T18:29:53.378Z,31.54
2023-05-14T18:32:23.984Z,31.59
2023-05-14T18:34:54.509Z,31.69
2023-05-14T18:37:25.103Z,31.70
2023-05-14T18:39:55.700Z,31.69
2023-05-14T18:42:26.578Z,31.82
2023-05-14T18:44:57.260Z,31.85
2023-05-14T18:47:28.070Z,31.93
2023-05-14T18:50:00.579Z,32.01
2023-05-14T18:52:32.407Z,31.99
2023-05-14T18:55:03.202Z,32.05
2023-05-14T18:57:34.111Z,32.08
2023-05-14T19:00:05.348Z,32.13
2023-05-14T19:02:36.112Z,32.21
2023-05-14T19:05:07.663Z,32.18
2023-05-14T19:07:39.256Z,32.31
2023-05-14T19:10:10.767Z,32.35
2023-05-14T19:12:41.339Z,32.48
2023-05-14T19:15:13.824Z,32.49
2023-05-14T19:17:44.835Z,32.53
2023-05-14T19:20:15.510Z,32.53
2023-05-14T19:22:46.102Z,32.65
2023-05-14T19:25:16.792Z,32.65
2023-05-14T19:27:51.074Z,32.77
2023-05-14T19:30:22.892Z,32.82
2023-05-14T19:32:53.378Z,32.83
2023-05-14T19:35:24.314Z,32.88
2023-05-14T19:37:55.072Z,32.75
2023-05-14T19:40:26.328Z,32.85
2023-05-14T19:42:56.856Z,32.89
2023-05-14T19:45:27.509Z,33.05
2023-05-14T19:47:58.454Z,33.20
2023-05-14T19:50:29.001Z,33.22
2023-05-14T19:52:59.613Z,33.35
2023-05-14T19:55:30.191Z,33.34
2023-05-14T19:58:00.717Z,33.33
2023-05-14T20:00:31.698Z,33.42
2023-05-14T20:03:02.478Z,33.31
2023-05-14T20:05:34.445Z,33.50
2023-05-14T20:08:07.669Z,33.52
2023-05-14T20:10:38.279Z,33.60
2023-05-14T20:13:09.294Z,33.69
2023-05-14T20:15:40.067Z,33.78
2023-05-14T20:18:10.823Z,33.83
2023-05-14T20:20:42.852Z,33.90
2023-05-14T20:23:13.464Z,33.94
2023-05-14T20:25:44.390Z,34.03
2023-05-14T20:28:14.986Z,34.10
2023-05-14T20:30:45.843Z,34.09
2023-05-14T20:33:16.546Z,34.11
2023-05-14T20:35:47.331Z,34.24
2023-05-14T20:38:18.527Z,34.27
2023-05-14T20:40:49.204Z,34.30
2023-05-14T20:43:19.956Z,34.30
2023-05-14T20:45:50.619Z,34.48
2023-05-14T20:48:22.153Z,34.58
2023-05-14T20:50:52.729Z,34.63
2023-05-14T20:53:23.444Z,34.73
2023-05-14T20:55:54.060Z,34.73
2023-05-14T20:58:25.447Z,34.79
2023-05-14T21:00:56.531Z,34.91
2023-05-14T21:03:28.263Z,34.96
2023-05-14T21:06:00.721Z,34.73
2023-05-14T21:08:32.975Z,34.87
2023-05-14T21:11:03.559Z,35.05
2023-05-14T21:13:34.136Z,34.99
2023-05-14T21:16:06.715Z,35.07
2023-05-14T21:18:37.378Z,35.08
2023-05-14T21:21:08.151Z,35.08
2023-05-14T21:23:38.924Z,35.21
2023-05-14T21:26:11.576Z,35.19
2023-05-14T21:28:42.196Z,35.29
2023-05-14T21:31:12.869Z,35.36
2023-05-14T21:33:43.937Z,35.29
2023-05-14T21:36:14.597Z,35.27
2023-05-14T21:38:45.214Z,35.42
2023-05-14T21:41:16.565Z,35.41
2023-05-14T21:43:47.422Z,35.44
2023-05-14T21:46:18.020Z,35.48
2023-05-14T21:48:48.703Z,35.62
2023-05-14T21:51:20.043Z,35.63
2023-05-14T21:53:50.796Z,35.80
2023-05-14T21:56:22.658Z,35.69
2023-05-14T21:58:55.606Z,35.81
2023-05-14T22:01:26.132Z,35.93
2023-05-14T22:03:57.970Z,35.85
2023-05-14T22:06:28.751Z,35.78
2023-05-14T22:08:59.307Z,35.90
2023-05-14T22:11:29.912Z,36.03
2023-05-14T22:14:01.178Z,35.99
2023-05-14T22:16:31.990Z,36.08
2023-05-14T22:19:03.994Z,36.10
2023-05-14T22:21:35.987Z,36.21
2023-05-14T22:24:07.656Z,36.24
2023-05-14T22:26:38.353Z,36.30
2023-05-14T22:29:08.990Z,36.29
2023-05-14T22:31:39.592Z,36.32
2023-05-14T22:34:10.652Z,36.42
2023-05-14T22:36:41.245Z,36.44
2023-05-14T22:39:13.462Z,36.43
2023-05-14T22:41:44.829Z,36.36
2023-05-14T22:44:15.491Z,36.55
2023-05-14T22:46:46.069Z,36.47
2023-05-14T22:49:16.824Z,36.60
2023-05-14T22:51:47.499Z,36.68
2023-05-14T22:54:18.417Z,36.78
2023-05-14T22:56:49.174Z,36.76
2023-05-14T22:59:21.466Z,36.71
2023-05-14T23:01:53.582Z,36.61
2023-05-14T23:04:24.233Z,36.64
2023-05-14T23:06:54.953Z,36.84
2023-05-14T23:09:25.741Z,36.83
2023-05-14T23:11:56.461Z,36.77
2023-05-14T23:14:27.107Z,36.89
2023-05-14T23:16:57.702Z,36.95
2023-05-14T23:19:28.379Z,36.94
2023-05-14T23:21:59.670Z,36.95
2023-05-14T23:24:30.176Z,36.98
2023-05-14T23:27:00.825Z,36.93
2023-05-14T23:29:31.422Z,36.90
2023-05-14T23:32:02.168Z,37.06
2023-05-14T23:34:32.758Z,37.10
2023-05-14T23:37:03.610Z,37.30
2023-05-14T23:39:34.275Z,37.27
2023-05-14T23:42:04.913Z,37.31
2023-05-14T23:44:35.476Z,37.13
2023-05-14T23:47:07.457Z,37.18
2023-05-14T23:49:39.490Z,37.41
2023-05-14T23:52:10.074Z,37.35
2023-05-14T23:54:40.624Z,37.34
2023-05-14T23:57:13.015Z,37.26
2023-05-14T23:59:44.991Z,37.22
